sensor_id;sensor_type;location;lat;lon;timestamp;P1;durP1;ratioP1;P2;durP2;ratioP2
46731;SDS011;32477;51.474;5.696;2022-11-20T00:01:05;22.05;;;10.48;;
46731;SDS011;32477;51.474;5.696;2022-11-20T00:03:57;22.33;;;11.07;;
46731;SDS011;32477;51.474;5.696;2022-11-20T00:06:23;25.67;;;11.77;;
46731;SDS011;32477;51.474;5.696;2022-11-20T00:08:50;28.05;;;11.88;;
46731;SDS011;32477;51.474;5.696;2022-11-20T00:11:17;29.30;;;13.65;;
46731;SDS011;32477;51.474;5.696;2022-11-20T00:13:44;25.75;;;12.32;;
46731;SDS011;32477;51.474;5.696;2022-11-20T00:16:12;27.02;;;12.18;;
46731;SDS011;32477;51.474;5.696;2022-11-20T00:18:39;23.55;;;12.63;;
46731;SDS011;32477;51.474;5.696;2022-11-20T00:21:10;27.10;;;13.25;;
46731;SDS011;32477;51.474;5.696;2022-11-20T00:23:41;27.15;;;13.27;;
46731;SDS011;32477;51.474;5.696;2022-11-20T00:26:08;24.58;;;12.40;;
46731;SDS011;32477;51.474;5.696;2022-11-20T00:28:35;28.20;;;14.10;;
46731;SDS011;32477;51.474;5.696;2022-11-20T00:31:02;26.52;;;13.52;;
46731;SDS011;32477;51.474;5.696;2022-11-20T00:33:32;28.73;;;13.68;;
46731;SDS011;32477;51.474;5.696;2022-11-20T00:35:59;31.38;;;13.50;;
46731;SDS011;32477;51.474;5.696;2022-11-20T00:38:45;35.53;;;13.45;;
46731;SDS011;32477;51.474;5.696;2022-11-20T00:41:12;33.47;;;15.55;;
46731;SDS011;32477;51.474;5.696;2022-11-20T00:43:39;29.80;;;14.13;;
46731;SDS011;32477;51.474;5.696;2022-11-20T00:46:05;29.48;;;13.63;;
46731;SDS011;32477;51.474;5.696;2022-11-20T00:48:33;28.25;;;13.65;;
46731;SDS011;32477;51.474;5.696;2022-11-20T00:50:59;27.95;;;12.38;;
46731;SDS011;32477;51.474;5.696;2022-11-20T00:53:25;26.45;;;13.07;;
46731;SDS011;32477;51.474;5.696;2022-11-20T00:56:01;27.40;;;13.43;;
46731;SDS011;32477;51.474;5.696;2022-11-20T00:58:32;28.60;;;13.77;;
46731;SDS011;32477;51.474;5.696;2022-11-20T01:03:30;34.30;;;16.20;;
46731;SDS011;32477;51.474;5.696;2022-11-20T01:06:04;34.97;;;14.43;;
46731;SDS011;32477;51.474;5.696;2022-11-20T01:08:32;29.33;;;14.77;;
46731;SDS011;32477;51.474;5.696;2022-11-20T01:11:03;31.95;;;13.98;;
46731;SDS011;32477;51.474;5.696;2022-11-20T01:13:31;30.15;;;14.35;;
46731;SDS011;32477;51.474;5.696;2022-11-20T01:16:04;33.55;;;14.77;;
46731;SDS011;32477;51.474;5.696;2022-11-20T01:19:00;32.78;;;14.90;;
46731;SDS011;32477;51.474;5.696;2022-11-20T01:21:28;32.97;;;14.02;;
46731;SDS011;32477;51.474;5.696;2022-11-20T01:23:55;35.85;;;15.93;;
46731;SDS011;32477;51.474;5.696;2022-11-20T01:26:23;37.50;;;14.75;;
46731;SDS011;32477;51.474;5.696;2022-11-20T01:28:51;49.83;;;16.10;;
46731;SDS011;32477;51.474;5.696;2022-11-20T01:31:18;34.20;;;15.15;;
46731;SDS011;32477;51.474;5.696;2022-11-20T01:33:44;29.42;;;13.73;;
46731;SDS011;32477;51.474;5.696;2022-11-20T01:36:11;33.03;;;15.02;;
46731;SDS011;32477;51.474;5.696;2022-11-20T01:38:37;32.40;;;14.60;;
46731;SDS011;32477;51.474;5.696;2022-11-20T01:41:03;32.50;;;15.02;;
46731;SDS011;32477;51.474;5.696;2022-11-20T01:43:29;39.13;;;14.60;;
46731;SDS011;32477;51.474;5.696;2022-11-20T01:48:24;34.90;;;15.68;;
46731;SDS011;32477;51.474;5.696;2022-11-20T01:50:56;38.72;;;16.33;;
46731;SDS011;32477;51.474;5.696;2022-11-20T01:53:24;35.63;;;14.77;;
46731;SDS011;32477;51.474;5.696;2022-11-20T01:55:54;32.88;;;14.93;;
46731;SDS011;32477;51.474;5.696;2022-11-20T01:58:23;29.90;;;14.45;;
46731;SDS011;32477;51.474;5.696;2022-11-20T02:00:59;39.95;;;15.93;;
46731;SDS011;32477;51.474;5.696;2022-11-20T02:03:24;43.90;;;16.05;;
46731;SDS011;32477;51.474;5.696;2022-11-20T02:06:01;37.70;;;15.98;;
46731;SDS011;32477;51.474;5.696;2022-11-20T02:08:29;45.58;;;16.63;;
46731;SDS011;32477;51.474;5.696;2022-11-20T02:10:56;38.88;;;15.27;;
46731;SDS011;32477;51.474;5.696;2022-11-20T02:13:21;35.58;;;15.90;;
46731;SDS011;32477;51.474;5.696;2022-11-20T02:16:08;47.53;;;16.75;;
46731;SDS011;32477;51.474;5.696;2022-11-20T02:18:55;34.60;;;15.57;;
46731;SDS011;32477;51.474;5.696;2022-11-20T02:24:26;42.47;;;17.70;;
46731;SDS011;32477;51.474;5.696;2022-11-20T02:32:28;37.58;;;16.55;;
46731;SDS011;32477;51.474;5.696;2022-11-20T02:34:56;40.78;;;16.73;;
46731;SDS011;32477;51.474;5.696;2022-11-20T02:37:22;39.72;;;17.15;;
46731;SDS011;32477;51.474;5.696;2022-11-20T02:39:50;44.92;;;18.73;;
46731;SDS011;32477;51.474;5.696;2022-11-20T02:42:17;44.15;;;17.20;;
46731;SDS011;32477;51.474;5.696;2022-11-20T02:44:42;36.38;;;17.70;;
46731;SDS011;32477;51.474;5.696;2022-11-20T02:47:08;40.45;;;17.50;;
46731;SDS011;32477;51.474;5.696;2022-11-20T02:49:34;44.10;;;18.05;;
46731;SDS011;32477;51.474;5.696;2022-11-20T02:52:00;39.35;;;16.27;;
46731;SDS011;32477;51.474;5.696;2022-11-20T02:54:26;49.45;;;17.50;;
46731;SDS011;32477;51.474;5.696;2022-11-20T02:56:51;48.70;;;18.40;;
46731;SDS011;32477;51.474;5.696;2022-11-20T02:59:17;45.50;;;17.83;;
46731;SDS011;32477;51.474;5.696;2022-11-20T03:01:43;47.35;;;18.15;;
46731;SDS011;32477;51.474;5.696;2022-11-20T03:04:08;43.42;;;17.88;;
46731;SDS011;32477;51.474;5.696;2022-11-20T03:06:34;41.00;;;17.77;;
46731;SDS011;32477;51.474;5.696;2022-11-20T03:09:00;40.42;;;16.70;;
46731;SDS011;32477;51.474;5.696;2022-11-20T03:11:25;48.75;;;19.50;;
46731;SDS011;32477;51.474;5.696;2022-11-20T03:13:51;39.25;;;16.48;;
46731;SDS011;32477;51.474;5.696;2022-11-20T03:16:21;36.38;;;16.50;;
46731;SDS011;32477;51.474;5.696;2022-11-20T03:18:48;39.75;;;17.38;;
46731;SDS011;32477;51.474;5.696;2022-11-20T03:21:14;36.08;;;16.80;;
46731;SDS011;32477;51.474;5.696;2022-11-20T03:23:40;40.92;;;18.77;;
46731;SDS011;32477;51.474;5.696;2022-11-20T03:26:07;36.28;;;16.90;;
46731;SDS011;32477;51.474;5.696;2022-11-20T03:28:39;37.85;;;18.10;;
46731;SDS011;32477;51.474;5.696;2022-11-20T03:31:06;37.13;;;17.90;;
46731;SDS011;32477;51.474;5.696;2022-11-20T03:33:36;34.03;;;16.38;;
46731;SDS011;32477;51.474;5.696;2022-11-20T03:36:07;35.90;;;15.70;;
46731;SDS011;32477;51.474;5.696;2022-11-20T03:38:35;38.05;;;16.80;;
46731;SDS011;32477;51.474;5.696;2022-11-20T03:41:06;34.72;;;15.88;;
46731;SDS011;32477;51.474;5.696;2022-11-20T03:43:33;40.03;;;16.55;;
46731;SDS011;32477;51.474;5.696;2022-11-20T03:45:59;38.03;;;17.23;;
46731;SDS011;32477;51.474;5.696;2022-11-20T03:48:25;43.25;;;16.80;;
46731;SDS011;32477;51.474;5.696;2022-11-20T03:50:52;35.25;;;15.43;;
46731;SDS011;32477;51.474;5.696;2022-11-20T03:53:18;33.72;;;16.35;;
46731;SDS011;32477;51.474;5.696;2022-11-20T03:55:45;36.22;;;16.60;;
46731;SDS011;32477;51.474;5.696;2022-11-20T03:58:15;34.78;;;16.67;;
46731;SDS011;32477;51.474;5.696;2022-11-20T04:00:41;30.75;;;15.48;;
46731;SDS011;32477;51.474;5.696;2022-11-20T04:03:06;36.25;;;16.42;;
46731;SDS011;32477;51.474;5.696;2022-11-20T04:05:33;41.17;;;16.65;;
46731;SDS011;32477;51.474;5.696;2022-11-20T04:07:59;35.47;;;16.25;;
46731;SDS011;32477;51.474;5.696;2022-11-20T04:10:24;33.00;;;16.08;;
46731;SDS011;32477;51.474;5.696;2022-11-20T04:12:50;35.78;;;15.02;;
46731;SDS011;32477;51.474;5.696;2022-11-20T04:15:16;36.90;;;16.38;;
46731;SDS011;32477;51.474;5.696;2022-11-20T04:17:41;32.60;;;15.90;;
46731;SDS011;32477;51.474;5.696;2022-11-20T04:20:07;39.28;;;16.80;;
46731;SDS011;32477;51.474;5.696;2022-11-20T04:22:33;41.38;;;16.38;;
46731;SDS011;32477;51.474;5.696;2022-11-20T04:24:59;35.05;;;16.55;;
46731;SDS011;32477;51.474;5.696;2022-11-20T04:27:24;36.30;;;16.73;;
46731;SDS011;32477;51.474;5.696;2022-11-20T04:29:50;34.45;;;16.05;;
46731;SDS011;32477;51.474;5.696;2022-11-20T04:32:15;43.30;;;17.10;;
46731;SDS011;32477;51.474;5.696;2022-11-20T04:34:41;37.13;;;15.63;;
46731;SDS011;32477;51.474;5.696;2022-11-20T04:37:07;39.85;;;17.13;;
46731;SDS011;32477;51.474;5.696;2022-11-20T04:39:32;39.63;;;16.30;;
46731;SDS011;32477;51.474;5.696;2022-11-20T04:41:58;38.38;;;17.40;;
46731;SDS011;32477;51.474;5.696;2022-11-20T04:44:42;37.45;;;17.25;;
46731;SDS011;32477;51.474;5.696;2022-11-20T04:47:07;38.13;;;15.57;;
46731;SDS011;32477;51.474;5.696;2022-11-20T04:49:33;38.15;;;16.67;;
46731;SDS011;32477;51.474;5.696;2022-11-20T04:51:58;40.00;;;15.85;;
46731;SDS011;32477;51.474;5.696;2022-11-20T04:54:24;36.85;;;16.67;;
46731;SDS011;32477;51.474;5.696;2022-11-20T04:56:50;32.15;;;15.82;;
46731;SDS011;32477;51.474;5.696;2022-11-20T04:59:15;41.35;;;16.08;;
46731;SDS011;32477;51.474;5.696;2022-11-20T05:01:41;33.25;;;16.08;;
46731;SDS011;32477;51.474;5.696;2022-11-20T05:04:07;38.42;;;16.35;;
46731;SDS011;32477;51.474;5.696;2022-11-20T05:06:33;39.33;;;17.08;;
46731;SDS011;32477;51.474;5.696;2022-11-20T05:08:58;40.22;;;17.85;;
46731;SDS011;32477;51.474;5.696;2022-11-20T05:11:24;35.13;;;16.58;;
46731;SDS011;32477;51.474;5.696;2022-11-20T05:13:51;39.00;;;15.80;;
46731;SDS011;32477;51.474;5.696;2022-11-20T05:16:18;36.17;;;15.88;;
46731;SDS011;32477;51.474;5.696;2022-11-20T05:18:49;33.15;;;15.63;;
46731;SDS011;32477;51.474;5.696;2022-11-20T05:21:16;37.38;;;15.85;;
46731;SDS011;32477;51.474;5.696;2022-11-20T05:23:42;36.67;;;16.05;;
46731;SDS011;32477;51.474;5.696;2022-11-20T05:26:12;36.30;;;16.67;;
46731;SDS011;32477;51.474;5.696;2022-11-20T05:28:46;40.22;;;17.38;;
46731;SDS011;32477;51.474;5.696;2022-11-20T05:31:16;35.03;;;16.25;;
46731;SDS011;32477;51.474;5.696;2022-11-20T05:33:44;43.88;;;17.38;;
46731;SDS011;32477;51.474;5.696;2022-11-20T05:36:11;41.92;;;17.00;;
46731;SDS011;32477;51.474;5.696;2022-11-20T05:38:38;36.22;;;17.13;;
46731;SDS011;32477;51.474;5.696;2022-11-20T05:43:34;39.65;;;18.35;;
46731;SDS011;32477;51.474;5.696;2022-11-20T05:46:01;41.78;;;16.95;;
46731;SDS011;32477;51.474;5.696;2022-11-20T05:48:27;36.47;;;17.77;;
46731;SDS011;32477;51.474;5.696;2022-11-20T05:50:53;35.47;;;15.75;;
46731;SDS011;32477;51.474;5.696;2022-11-20T05:53:19;38.75;;;17.55;;
46731;SDS011;32477;51.474;5.696;2022-11-20T05:55:44;36.13;;;15.52;;
46731;SDS011;32477;51.474;5.696;2022-11-20T05:58:10;41.92;;;16.63;;
46731;SDS011;32477;51.474;5.696;2022-11-20T06:00:36;36.35;;;16.85;;
46731;SDS011;32477;51.474;5.696;2022-11-20T06:03:02;38.38;;;17.65;;
46731;SDS011;32477;51.474;5.696;2022-11-20T06:05:27;32.42;;;15.65;;
46731;SDS011;32477;51.474;5.696;2022-11-20T06:07:53;39.47;;;17.27;;
46731;SDS011;32477;51.474;5.696;2022-11-20T06:10:18;33.58;;;15.32;;
46731;SDS011;32477;51.474;5.696;2022-11-20T06:12:44;30.80;;;16.40;;
46731;SDS011;32477;51.474;5.696;2022-11-20T06:15:10;36.95;;;17.30;;
46731;SDS011;32477;51.474;5.696;2022-11-20T06:17:35;38.42;;;18.27;;
46731;SDS011;32477;51.474;5.696;2022-11-20T06:20:01;34.10;;;16.75;;
46731;SDS011;32477;51.474;5.696;2022-11-20T06:22:27;38.65;;;16.08;;
46731;SDS011;32477;51.474;5.696;2022-11-20T06:24:52;29.65;;;15.57;;
46731;SDS011;32477;51.474;5.696;2022-11-20T06:27:18;33.55;;;16.00;;
46731;SDS011;32477;51.474;5.696;2022-11-20T06:29:44;36.58;;;17.30;;
46731;SDS011;32477;51.474;5.696;2022-11-20T06:32:09;37.28;;;17.73;;
46731;SDS011;32477;51.474;5.696;2022-11-20T06:34:35;35.25;;;15.98;;
46731;SDS011;32477;51.474;5.696;2022-11-20T06:37:00;36.83;;;17.08;;
46731;SDS011;32477;51.474;5.696;2022-11-20T06:39:26;34.38;;;15.65;;
46731;SDS011;32477;51.474;5.696;2022-11-20T06:41:52;38.22;;;16.73;;
46731;SDS011;32477;51.474;5.696;2022-11-20T06:44:17;36.38;;;16.65;;
46731;SDS011;32477;51.474;5.696;2022-11-20T06:46:43;40.28;;;15.40;;
46731;SDS011;32477;51.474;5.696;2022-11-20T06:49:08;34.90;;;14.63;;
46731;SDS011;32477;51.474;5.696;2022-11-20T06:51:34;32.95;;;16.10;;
46731;SDS011;32477;51.474;5.696;2022-11-20T06:54:00;33.78;;;16.83;;
46731;SDS011;32477;51.474;5.696;2022-11-20T06:56:26;33.22;;;15.75;;
46731;SDS011;32477;51.474;5.696;2022-11-20T06:58:51;34.70;;;15.82;;
46731;SDS011;32477;51.474;5.696;2022-11-20T07:01:17;29.48;;;15.63;;
46731;SDS011;32477;51.474;5.696;2022-11-20T07:03:43;33.28;;;14.70;;
46731;SDS011;32477;51.474;5.696;2022-11-20T07:06:09;31.38;;;15.48;;
46731;SDS011;32477;51.474;5.696;2022-11-20T07:08:36;32.75;;;16.50;;
46731;SDS011;32477;51.474;5.696;2022-11-20T07:11:06;35.90;;;15.68;;
46731;SDS011;32477;51.474;5.696;2022-11-20T07:13:32;31.92;;;15.95;;
46731;SDS011;32477;51.474;5.696;2022-11-20T07:15:59;35.33;;;16.48;;
46731;SDS011;32477;51.474;5.696;2022-11-20T07:18:30;33.80;;;16.38;;
46731;SDS011;32477;51.474;5.696;2022-11-20T07:20:55;38.53;;;17.10;;
46731;SDS011;32477;51.474;5.696;2022-11-20T07:23:24;31.05;;;15.38;;
46731;SDS011;32477;51.474;5.696;2022-11-20T07:25:50;33.58;;;15.25;;
46731;SDS011;32477;51.474;5.696;2022-11-20T07:28:16;46.00;;;16.13;;
46731;SDS011;32477;51.474;5.696;2022-11-20T07:30:41;37.38;;;16.08;;
46731;SDS011;32477;51.474;5.696;2022-11-20T07:33:07;34.10;;;17.25;;
46731;SDS011;32477;51.474;5.696;2022-11-20T07:35:32;35.60;;;16.35;;
46731;SDS011;32477;51.474;5.696;2022-11-20T07:37:58;31.02;;;15.23;;
46731;SDS011;32477;51.474;5.696;2022-11-20T07:40:24;27.00;;;14.23;;
46731;SDS011;32477;51.474;5.696;2022-11-20T07:42:50;35.10;;;15.10;;
46731;SDS011;32477;51.474;5.696;2022-11-20T07:45:20;30.05;;;15.15;;
46731;SDS011;32477;51.474;5.696;2022-11-20T07:47:48;31.50;;;15.52;;
46731;SDS011;32477;51.474;5.696;2022-11-20T07:50:14;33.28;;;16.17;;
46731;SDS011;32477;51.474;5.696;2022-11-20T07:52:40;42.25;;;16.30;;
46731;SDS011;32477;51.474;5.696;2022-11-20T07:55:06;33.22;;;16.02;;
46731;SDS011;32477;51.474;5.696;2022-11-20T07:57:33;34.05;;;15.63;;
46731;SDS011;32477;51.474;5.696;2022-11-20T07:59:59;29.65;;;15.10;;
46731;SDS011;32477;51.474;5.696;2022-11-20T08:02:24;30.38;;;15.10;;
46731;SDS011;32477;51.474;5.696;2022-11-20T08:04:50;34.38;;;15.35;;
46731;SDS011;32477;51.474;5.696;2022-11-20T08:07:16;34.20;;;15.70;;
46731;SDS011;32477;51.474;5.696;2022-11-20T08:09:41;31.42;;;15.95;;
46731;SDS011;32477;51.474;5.696;2022-11-20T08:12:07;29.38;;;15.50;;
46731;SDS011;32477;51.474;5.696;2022-11-20T08:14:57;31.45;;;14.70;;
46731;SDS011;32477;51.474;5.696;2022-11-20T08:17:23;30.50;;;14.73;;
46731;SDS011;32477;51.474;5.696;2022-11-20T08:19:49;32.15;;;14.73;;
46731;SDS011;32477;51.474;5.696;2022-11-20T08:22:15;32.17;;;14.88;;
46731;SDS011;32477;51.474;5.696;2022-11-20T08:24:42;24.83;;;14.43;;
46731;SDS011;32477;51.474;5.696;2022-11-20T08:27:08;42.75;;;15.68;;
46731;SDS011;32477;51.474;5.696;2022-11-20T08:29:33;32.63;;;16.13;;
46731;SDS011;32477;51.474;5.696;2022-11-20T08:31:59;32.03;;;16.08;;
46731;SDS011;32477;51.474;5.696;2022-11-20T08:34:25;30.92;;;15.07;;
46731;SDS011;32477;51.474;5.696;2022-11-20T08:36:50;33.17;;;15.07;;
46731;SDS011;32477;51.474;5.696;2022-11-20T08:39:16;35.03;;;16.30;;
46731;SDS011;32477;51.474;5.696;2022-11-20T08:41:41;41.42;;;18.17;;
46731;SDS011;32477;51.474;5.696;2022-11-20T08:44:07;37.38;;;18.77;;
46731;SDS011;32477;51.474;5.696;2022-11-20T08:49:02;33.38;;;16.45;;
46731;SDS011;32477;51.474;5.696;2022-11-20T08:51:28;33.03;;;17.10;;
46731;SDS011;32477;51.474;5.696;2022-11-20T08:53:53;42.53;;;19.23;;
46731;SDS011;32477;51.474;5.696;2022-11-20T08:56:19;35.47;;;18.13;;
46731;SDS011;32477;51.474;5.696;2022-11-20T08:58:45;42.28;;;18.92;;
46731;SDS011;32477;51.474;5.696;2022-11-20T09:01:10;43.45;;;20.08;;
46731;SDS011;32477;51.474;5.696;2022-11-20T09:03:36;39.92;;;19.73;;
46731;SDS011;32477;51.474;5.696;2022-11-20T09:06:03;40.50;;;20.55;;
46731;SDS011;32477;51.474;5.696;2022-11-20T09:08:30;47.05;;;20.17;;
46731;SDS011;32477;51.474;5.696;2022-11-20T09:10:56;39.35;;;19.80;;
46731;SDS011;32477;51.474;5.696;2022-11-20T09:13:23;42.30;;;18.85;;
46731;SDS011;32477;51.474;5.696;2022-11-20T09:15:53;32.95;;;18.27;;
46731;SDS011;32477;51.474;5.696;2022-11-20T09:18:26;32.92;;;16.65;;
46731;SDS011;32477;51.474;5.696;2022-11-20T09:20:57;33.28;;;17.85;;
46731;SDS011;32477;51.474;5.696;2022-11-20T09:23:23;37.92;;;18.48;;
46731;SDS011;32477;51.474;5.696;2022-11-20T09:25:50;37.67;;;17.67;;
46731;SDS011;32477;51.474;5.696;2022-11-20T09:28:15;43.70;;;19.88;;
46731;SDS011;32477;51.474;5.696;2022-11-20T09:30:43;43.97;;;20.67;;
46731;SDS011;32477;51.474;5.696;2022-11-20T09:33:09;38.22;;;18.30;;
46731;SDS011;32477;51.474;5.696;2022-11-20T09:35:35;39.55;;;18.83;;
46731;SDS011;32477;51.474;5.696;2022-11-20T09:38:04;34.05;;;16.55;;
46731;SDS011;32477;51.474;5.696;2022-11-20T09:40:34;36.70;;;18.67;;
46731;SDS011;32477;51.474;5.696;2022-11-20T09:48:40;42.67;;;19.33;;
46731;SDS011;32477;51.474;5.696;2022-11-20T09:56:48;39.38;;;17.98;;
46731;SDS011;32477;51.474;5.696;2022-11-20T10:02:02;58.85;;;22.52;;
46731;SDS011;32477;51.474;5.696;2022-11-20T10:04:37;53.95;;;22.65;;
46731;SDS011;32477;51.474;5.696;2022-11-20T10:07:22;56.00;;;21.25;;
46731;SDS011;32477;51.474;5.696;2022-11-20T10:10:14;64.00;;;22.60;;
46731;SDS011;32477;51.474;5.696;2022-11-20T10:13:00;59.70;;;24.33;;
46731;SDS011;32477;51.474;5.696;2022-11-20T10:21:06;71.10;;;25.95;;
46731;SDS011;32477;51.474;5.696;2022-11-20T10:26:20;59.05;;;23.55;;
46731;SDS011;32477;51.474;5.696;2022-11-20T10:34:05;52.50;;;22.80;;
46731;SDS011;32477;51.474;5.696;2022-11-20T10:36:55;56.78;;;21.45;;
46731;SDS011;32477;51.474;5.696;2022-11-20T10:42:13;61.03;;;23.30;;
46731;SDS011;32477;51.474;5.696;2022-11-20T10:44:47;49.33;;;21.63;;
46731;SDS011;32477;51.474;5.696;2022-11-20T10:47:27;47.28;;;20.55;;
46731;SDS011;32477;51.474;5.696;2022-11-20T10:49:56;48.00;;;21.23;;
46731;SDS011;32477;51.474;5.696;2022-11-20T11:00:35;63.00;;;24.60;;
46731;SDS011;32477;51.474;5.696;2022-11-20T11:03:00;56.08;;;22.42;;
46731;SDS011;32477;51.474;5.696;2022-11-20T11:05:45;61.25;;;23.67;;
46731;SDS011;32477;51.474;5.696;2022-11-20T11:08:20;64.75;;;23.45;;
46731;SDS011;32477;51.474;5.696;2022-11-20T11:13:23;58.20;;;22.20;;
46731;SDS011;32477;51.474;5.696;2022-11-20T11:15:53;59.63;;;23.25;;
46731;SDS011;32477;51.474;5.696;2022-11-20T11:18:23;64.75;;;24.15;;
46731;SDS011;32477;51.474;5.696;2022-11-20T11:20:55;59.15;;;22.90;;
46731;SDS011;32477;51.474;5.696;2022-11-20T11:26:02;58.00;;;23.35;;
46731;SDS011;32477;51.474;5.696;2022-11-20T11:28:29;61.22;;;22.27;;
46731;SDS011;32477;51.474;5.696;2022-11-20T11:30:55;63.30;;;24.48;;
46731;SDS011;32477;51.474;5.696;2022-11-20T11:33:25;56.35;;;24.00;;
46731;SDS011;32477;51.474;5.696;2022-11-20T11:35:59;55.13;;;23.08;;
46731;SDS011;32477;51.474;5.696;2022-11-20T11:38:29;60.20;;;22.00;;
46731;SDS011;32477;51.474;5.696;2022-11-20T11:41:06;57.13;;;24.33;;
46731;SDS011;32477;51.474;5.696;2022-11-20T11:43:36;51.55;;;23.10;;
46731;SDS011;32477;51.474;5.696;2022-11-20T11:48:56;54.75;;;23.63;;
46731;SDS011;32477;51.474;5.696;2022-11-20T11:51:22;54.97;;;23.88;;
46731;SDS011;32477;51.474;5.696;2022-11-20T11:53:54;54.20;;;23.08;;
46731;SDS011;32477;51.474;5.696;2022-11-20T11:56:20;58.85;;;23.23;;
46731;SDS011;32477;51.474;5.696;2022-11-20T11:58:48;66.40;;;23.90;;
46731;SDS011;32477;51.474;5.696;2022-11-20T12:04:44;55.42;;;23.35;;
46731;SDS011;32477;51.474;5.696;2022-11-20T12:10:23;57.30;;;23.38;;
46731;SDS011;32477;51.474;5.696;2022-11-20T12:13:11;59.90;;;25.55;;
46731;SDS011;32477;51.474;5.696;2022-11-20T12:15:59;58.30;;;23.45;;
46731;SDS011;32477;51.474;5.696;2022-11-20T12:18:28;65.18;;;24.00;;
46731;SDS011;32477;51.474;5.696;2022-11-20T12:26:34;59.92;;;22.90;;
46731;SDS011;32477;51.474;5.696;2022-11-20T12:29:10;50.85;;;24.27;;
46731;SDS011;32477;51.474;5.696;2022-11-20T12:40:02;61.47;;;23.73;;
46731;SDS011;32477;51.474;5.696;2022-11-20T12:42:57;60.88;;;24.13;;
46731;SDS011;32477;51.474;5.696;2022-11-20T12:48:46;55.03;;;23.00;;
46731;SDS011;32477;51.474;5.696;2022-11-20T13:02:33;62.92;;;24.27;;
46731;SDS011;32477;51.474;5.696;2022-11-20T13:08:21;57.67;;;23.30;;
46731;SDS011;32477;51.474;5.696;2022-11-20T13:21:47;50.60;;;22.95;;
46731;SDS011;32477;51.474;5.696;2022-11-20T13:26:59;57.42;;;23.90;;
46731;SDS011;32477;51.474;5.696;2022-11-20T13:29:25;52.80;;;22.95;;
46731;SDS011;32477;51.474;5.696;2022-11-20T13:32:00;60.05;;;24.27;;
46731;SDS011;32477;51.474;5.696;2022-11-20T13:34:54;65.95;;;24.08;;
46731;SDS011;32477;51.474;5.696;2022-11-20T13:42:34;70.32;;;24.10;;
46731;SDS011;32477;51.474;5.696;2022-11-20T13:45:08;65.82;;;23.35;;
46731;SDS011;32477;51.474;5.696;2022-11-20T13:47:36;62.38;;;24.63;;
46731;SDS011;32477;51.474;5.696;2022-11-20T13:50:08;65.57;;;23.95;;
46731;SDS011;32477;51.474;5.696;2022-11-20T13:58:24;64.70;;;26.23;;
46731;SDS011;32477;51.474;5.696;2022-11-20T14:01:09;63.15;;;24.42;;
46731;SDS011;32477;51.474;5.696;2022-11-20T14:03:41;69.15;;;26.17;;
46731;SDS011;32477;51.474;5.696;2022-11-20T14:06:11;66.70;;;25.65;;
46731;SDS011;32477;51.474;5.696;2022-11-20T14:08:49;64.63;;;25.60;;
46731;SDS011;32477;51.474;5.696;2022-11-20T14:11:28;60.97;;;24.63;;
46731;SDS011;32477;51.474;5.696;2022-11-20T14:16:28;71.15;;;24.80;;
46731;SDS011;32477;51.474;5.696;2022-11-20T14:18:56;58.05;;;26.30;;
46731;SDS011;32477;51.474;5.696;2022-11-20T14:23:52;61.10;;;25.15;;
46731;SDS011;32477;51.474;5.696;2022-11-20T14:26:18;61.25;;;26.45;;
46731;SDS011;32477;51.474;5.696;2022-11-20T14:28:47;60.17;;;24.70;;
46731;SDS011;32477;51.474;5.696;2022-11-20T14:31:25;49.58;;;22.17;;
46731;SDS011;32477;51.474;5.696;2022-11-20T14:33:53;61.25;;;24.77;;
46731;SDS011;32477;51.474;5.696;2022-11-20T14:36:20;62.92;;;23.63;;
46731;SDS011;32477;51.474;5.696;2022-11-20T14:38:48;56.22;;;24.27;;
46731;SDS011;32477;51.474;5.696;2022-11-20T14:41:19;70.75;;;23.98;;
46731;SDS011;32477;51.474;5.696;2022-11-20T14:43:58;59.65;;;24.17;;
46731;SDS011;32477;51.474;5.696;2022-11-20T14:46:26;63.78;;;25.00;;
46731;SDS011;32477;51.474;5.696;2022-11-20T14:48:56;63.78;;;22.50;;
46731;SDS011;32477;51.474;5.696;2022-11-20T14:51:33;68.13;;;25.13;;
46731;SDS011;32477;51.474;5.696;2022-11-20T14:54:16;75.05;;;25.98;;
46731;SDS011;32477;51.474;5.696;2022-11-20T14:57:03;59.85;;;24.25;;
46731;SDS011;32477;51.474;5.696;2022-11-20T14:59:30;82.15;;;27.23;;
46731;SDS011;32477;51.474;5.696;2022-11-20T15:02:01;58.25;;;25.17;;
46731;SDS011;32477;51.474;5.696;2022-11-20T15:04:31;66.38;;;25.45;;
46731;SDS011;32477;51.474;5.696;2022-11-20T15:06:58;67.68;;;24.77;;
46731;SDS011;32477;51.474;5.696;2022-11-20T15:09:24;70.95;;;26.17;;
46731;SDS011;32477;51.474;5.696;2022-11-20T15:11:54;66.45;;;26.88;;
46731;SDS011;32477;51.474;5.696;2022-11-20T15:14:22;79.25;;;25.55;;
46731;SDS011;32477;51.474;5.696;2022-11-20T15:16:49;67.07;;;25.08;;
46731;SDS011;32477;51.474;5.696;2022-11-20T15:19:16;73.03;;;25.92;;
46731;SDS011;32477;51.474;5.696;2022-11-20T15:21:47;64.65;;;25.15;;
46731;SDS011;32477;51.474;5.696;2022-11-20T15:24:12;88.57;;;25.65;;
46731;SDS011;32477;51.474;5.696;2022-11-20T15:26:39;80.97;;;27.45;;
46731;SDS011;32477;51.474;5.696;2022-11-20T15:29:06;76.97;;;27.50;;
46731;SDS011;32477;51.474;5.696;2022-11-20T15:31:35;73.43;;;27.17;;
46731;SDS011;32477;51.474;5.696;2022-11-20T15:34:01;81.32;;;27.77;;
46731;SDS011;32477;51.474;5.696;2022-11-20T15:36:27;77.07;;;26.58;;
46731;SDS011;32477;51.474;5.696;2022-11-20T15:38:52;84.07;;;27.70;;
46731;SDS011;32477;51.474;5.696;2022-11-20T15:41:18;72.20;;;25.27;;
46731;SDS011;32477;51.474;5.696;2022-11-20T15:43:44;70.57;;;25.58;;
46731;SDS011;32477;51.474;5.696;2022-11-20T15:46:21;81.57;;;28.83;;
46731;SDS011;32477;51.474;5.696;2022-11-20T15:48:54;74.13;;;26.85;;
46731;SDS011;32477;51.474;5.696;2022-11-20T15:53:51;76.60;;;26.63;;
46731;SDS011;32477;51.474;5.696;2022-11-20T15:56:17;78.18;;;27.65;;
46731;SDS011;32477;51.474;5.696;2022-11-20T15:58:43;77.28;;;26.42;;
46731;SDS011;32477;51.474;5.696;2022-11-20T16:01:12;66.00;;;25.48;;
46731;SDS011;32477;51.474;5.696;2022-11-20T16:03:40;69.93;;;25.75;;
46731;SDS011;32477;51.474;5.696;2022-11-20T16:06:06;78.93;;;25.23;;
46731;SDS011;32477;51.474;5.696;2022-11-20T16:08:32;62.05;;;23.02;;
46731;SDS011;32477;51.474;5.696;2022-11-20T16:10:57;73.65;;;26.27;;
46731;SDS011;32477;51.474;5.696;2022-11-20T16:13:23;68.05;;;24.23;;
46731;SDS011;32477;51.474;5.696;2022-11-20T16:16:07;65.20;;;22.98;;
46731;SDS011;32477;51.474;5.696;2022-11-20T16:18:47;69.97;;;24.85;;
46731;SDS011;32477;51.474;5.696;2022-11-20T16:21:13;70.78;;;23.48;;
46731;SDS011;32477;51.474;5.696;2022-11-20T16:23:39;73.72;;;24.33;;
46731;SDS011;32477;51.474;5.696;2022-11-20T16:26:15;73.65;;;23.67;;
46731;SDS011;32477;51.474;5.696;2022-11-20T16:28:42;62.90;;;24.30;;
46731;SDS011;32477;51.474;5.696;2022-11-20T16:31:15;76.07;;;23.30;;
46731;SDS011;32477;51.474;5.696;2022-11-20T16:36:09;58.00;;;21.92;;
46731;SDS011;32477;51.474;5.696;2022-11-20T16:38:36;59.42;;;22.73;;
46731;SDS011;32477;51.474;5.696;2022-11-20T16:41:02;68.32;;;22.10;;
46731;SDS011;32477;51.474;5.696;2022-11-20T16:43:28;54.58;;;22.27;;
46731;SDS011;32477;51.474;5.696;2022-11-20T16:45:53;57.13;;;21.77;;
46731;SDS011;32477;51.474;5.696;2022-11-20T16:48:19;68.38;;;22.35;;